Time;durP1;ratioP1;P1;durP2;ratioP2;P2;SDS_P1;SDS_P2;PMS_P1;PMS_P2;Temp;Humidity;BMP_temperature;BMP_pressure;BME280_temperature;BME280_humidity;BME280_pressure;Samples;Min_cycle;Max_cycle;Signal;HPM_P1;HPM_P2
2020/12/10 00:02:42;;;;;;;9.88;6.60;;;20.00;45.10;;;;;;6243412;28;20030;-67
2020/12/10 00:05:42;;;;;;;12.38;7.95;;;20.00;45.10;;;;;;6245369;28;20442;-67
2020/12/10 00:08:43;;;;;;;10.02;6.95;;;20.00;45.10;;;;;;6244449;28;20108;-67
2020/12/10 00:11:43;;;;;;;10.57;7.30;;;20.00;45.20;;;;;;6244852;28;20025;-67
2020/12/10 00:14:45;;;;;;;12.45;7.57;;;20.00;45.10;;;;;;6243975;28;20429;-67
2020/12/10 00:17:45;;;;;;;10.55;6.82;;;20.00;45.10;;;;;;6243872;28;20034;-67
2020/12/10 00:20:46;;;;;;;10.93;7.25;;;20.00;45.10;;;;;;6243642;28;20541;-68
2020/12/10 00:23:46;;;;;;;10.63;7.00;;;20.00;45.20;;;;;;6243455;28;20037;-67
2020/12/10 00:26:48;;;;;;;12.20;7.47;;;19.90;45.10;;;;;;6244532;28;20399;-67
2020/12/10 00:29:49;;;;;;;10.55;7.07;;;20.00;45.20;;;;;;6243352;28;20051;-67
2020/12/10 00:32:50;;;;;;;10.90;6.88;;;20.00;45.20;;;;;;6243046;28;20035;-67
2020/12/10 00:35:51;;;;;;;10.45;7.13;;;20.00;45.20;;;;;;6243961;28;20116;-66
2020/12/10 00:38:51;;;;;;;11.20;7.13;;;20.00;45.20;;;;;;6243474;28;20429;-66
2020/12/10 00:41:53;;;;;;;10.82;7.60;;;20.00;45.20;;;;;;6243186;28;20116;-66
2020/12/10 00:44:54;;;;;;;10.35;7.15;;;20.00;45.20;;;;;;6267653;28;20017;-66
2020/12/10 00:47:54;;;;;;;10.52;7.13;;;20.00;45.30;;;;;;6268505;28;20398;-66
2020/12/10 00:50:55;;;;;;;10.25;6.95;;;20.00;45.20;;;;;;6267998;28;20029;-66
2020/12/10 00:53:55;;;;;;;10.23;7.32;;;20.00;45.30;;;;;;6268712;28;20299;-66
2020/12/10 00:56:56;;;;;;;11.07;7.43;;;20.00;45.30;;;;;;6268185;28;20104;-66
2020/12/10 00:59:56;;;;;;;11.73;8.20;;;20.00;45.20;;;;;;6268114;28;20040;-66
2020/12/10 01:02:57;;;;;;;12.88;8.27;;;20.00;45.30;;;;;;6267425;28;20045;-66
2020/12/10 01:05:57;;;;;;;11.82;7.75;;;20.00;45.30;;;;;;6267707;28;20463;-66
2020/12/10 01:08:58;;;;;;;11.00;6.97;;;20.00;45.30;;;;;;6267828;28;20540;-66
2020/12/10 01:11:58;;;;;;;11.82;7.88;;;19.90;45.20;;;;;;6266069;28;20459;-66
2020/12/10 01:14:59;;;;;;;11.70;7.38;;;19.90;45.20;;;;;;6267962;28;20075;-66
2020/12/10 01:17:59;;;;;;;9.98;7.57;;;19.90;45.20;;;;;;6267302;28;20029;-66
2020/12/10 01:21:00;;;;;;;11.82;7.40;;;19.90;45.90;;;;;;6267222;28;20029;-66
2020/12/10 01:24:02;;;;;;;12.05;7.85;;;19.90;45.20;;;;;;6267383;28;20025;-66
2020/12/10 01:27:02;;;;;;;12.35;7.22;;;19.90;45.30;;;;;;6267666;28;20021;-66
2020/12/10 01:30:06;;;;;;;11.07;7.57;;;19.90;45.20;;;;;;6266333;28;20538;-66
2020/12/10 01:33:07;;;;;;;11.50;7.65;;;19.90;45.20;;;;;;6267065;28;20367;-66
2020/12/10 01:36:07;;;;;;;11.82;7.63;;;19.90;45.30;;;;;;6245253;28;20103;-66
2020/12/10 01:39:08;;;;;;;11.68;7.82;;;19.90;45.30;;;;;;6264628;28;20037;-66
2020/12/10 01:42:09;;;;;;;12.27;7.90;;;19.90;45.30;;;;;;6266223;28;20032;-66
2020/12/10 01:45:09;;;;;;;11.95;7.32;;;19.90;45.30;;;;;;6267138;28;20028;-66
2020/12/10 01:48:10;;;;;;;11.13;7.45;;;19.90;45.30;;;;;;6266455;28;20036;-66
2020/12/10 01:51:11;;;;;;;12.45;8.10;;;19.90;45.30;;;;;;6266268;28;20057;-66
2020/12/10 01:54:12;;;;;;;12.05;7.63;;;19.90;45.30;;;;;;6266673;28;20116;-66
2020/12/10 01:57:12;;;;;;;12.82;7.80;;;19.90;45.30;;;;;;6266322;28;20033;-66
2020/12/10 02:00:13;;;;;;;12.77;7.82;;;19.90;45.30;;;;;;6265130;28;20025;-66
2020/12/10 02:03:13;;;;;;;11.85;8.00;;;19.90;45.30;;;;;;6266102;28;20167;-66
2020/12/10 02:06:14;;;;;;;13.75;8.50;;;19.90;45.30;;;;;;6267079;28;20044;-66
2020/12/10 02:09:14;;;;;;;12.60;7.70;;;19.90;46.00;;;;;;6265889;28;20032;-66
2020/12/10 02:12:15;;;;;;;12.20;8.27;;;19.90;45.40;;;;;;6266529;28;20037;-66
2020/12/10 02:15:17;;;;;;;12.77;8.40;;;19.90;45.40;;;;;;6266388;28;20033;-66
2020/12/10 02:18:17;;;;;;;13.30;8.10;;;19.90;45.40;;;;;;6265912;28;20428;-66
2020/12/10 02:21:18;;;;;;;12.98;8.18;;;19.90;45.30;;;;;;6266729;28;20029;-66
2020/12/10 02:24:18;;;;;;;13.35;8.73;;;19.90;45.30;;;;;;6265791;28;20021;-66
2020/12/10 02:27:19;;;;;;;12.02;8.10;;;19.90;45.40;;;;;;6266403;28;20029;-66
2020/12/10 02:30:19;;;;;;;12.88;8.38;;;19.80;45.30;;;;;;6265392;28;20162;-66
2020/12/10 02:33:20;;;;;;;13.20;8.50;;;19.80;45.30;;;;;;6266305;28;20108;-66
2020/12/10 02:36:20;;;;;;;13.45;8.05;;;19.80;45.30;;;;;;6265885;28;20021;-66
2020/12/10 02:39:21;;;;;;;12.35;8.10;;;19.80;45.30;;;;;;6266460;28;20082;-66
2020/12/10 02:42:22;;;;;;;12.85;8.30;;;19.80;45.30;;;;;;6270295;28;20029;-66
2020/12/10 02:45:23;;;;;;;13.48;8.00;;;19.80;45.30;;;;;;6270751;28;20395;-66
2020/12/10 02:48:24;;;;;;;13.90;8.07;;;19.80;45.30;;;;;;6271596;28;20514;-66
2020/12/10 02:51:24;;;;;;;13.13;8.73;;;19.80;45.30;;;;;;6270202;28;20021;-66
2020/12/10 02:54:25;;;;;;;12.80;8.30;;;19.80;45.30;;;;;;6271161;28;20360;-66
2020/12/10 02:57:25;;;;;;;13.85;8.35;;;19.80;45.30;;;;;;6270522;28;20120;-66
2020/12/10 03:00:26;;;;;;;11.57;7.70;;;19.80;45.30;;;;;;6270628;28;20072;-66
2020/12/10 03:03:26;;;;;;;15.23;9.02;;;19.80;45.30;;;;;;6270326;28;20075;-66
2020/12/10 03:06:27;;;;;;;12.63;8.10;;;19.80;45.40;;;;;;6270720;28;20029;-66
2020/12/10 03:09:27;;;;;;;12.68;7.82;;;19.80;45.40;;;;;;6270439;28;20033;-66
2020/12/10 03:12:28;;;;;;;13.52;8.60;;;19.80;45.40;;;;;;6270246;28;20037;-66
2020/12/10 03:15:28;;;;;;;12.80;9.07;;;19.80;45.40;;;;;;6271017;28;20040;-66
2020/12/10 03:18:29;;;;;;;11.65;8.25;;;19.80;45.40;;;;;;6269784;28;20025;-66
2020/12/10 03:21:29;;;;;;;13.55;8.85;;;19.80;45.40;;;;;;6270060;28;20033;-66
2020/12/10 03:24:30;;;;;;;15.98;9.45;;;19.80;45.40;;;;;;6270289;28;20067;-66
2020/12/10 03:27:30;;;;;;;13.93;9.00;;;19.80;45.40;;;;;;6270334;28;20154;-66
2020/12/10 03:30:31;;;;;;;12.35;8.00;;;19.80;45.40;;;;;;6268151;28;20494;-66
2020/12/10 03:33:31;;;;;;;12.23;8.20;;;19.80;45.40;;;;;;6269534;28;20021;-66
2020/12/10 03:36:51;;;;;;;13.02;8.65;;;19.80;45.70;;;;;;6269820;28;20032;-66
2020/12/10 03:39:52;;;;;;;13.43;8.93;;;19.80;45.40;;;;;;6269710;28;20017;-66
2020/12/10 03:42:52;;;;;;;13.93;8.98;;;19.80;45.40;;;;;;6269338;28;20025;-66
2020/12/10 03:45:53;;;;;;;13.00;8.60;;;19.80;45.40;;;;;;6270047;28;20021;-66
2020/12/10 03:48:53;;;;;;;12.82;8.02;;;19.80;45.40;;;;;;6269212;28;20606;-66
2020/12/10 03:51:54;;;;;;;14.68;8.38;;;19.80;45.40;;;;;;6268173;28;20403;-66
2020/12/10 03:54:55;;;;;;;12.63;7.97;;;19.80;45.40;;;;;;6269330;28;20429;-66
2020/12/10 03:57:55;;;;;;;14.85;8.30;;;19.80;45.40;;;;;;6269327;28;20048;-66
2020/12/10 04:00:56;;;;;;;12.70;8.10;;;19.80;45.50;;;;;;6269203;28;20170;-66
2020/12/10 04:03:56;;;;;;;14.02;9.00;;;19.80;45.50;;;;;;6268608;28;20367;-66
2020/12/10 04:06:57;;;;;;;13.98;8.60;;;19.80;45.50;;;;;;6269302;28;20025;-66
2020/12/10 04:09:57;;;;;;;14.25;8.50;;;19.70;45.50;;;;;;6268428;28;20029;-66
2020/12/10 04:13:00;;;;;;;12.32;8.35;;;19.70;45.30;;;;;;6269707;28;20029;-66
2020/12/10 04:16:01;;;;;;;13.60;8.57;;;19.80;45.40;;;;;;6269224;28;20044;-67
2020/12/10 04:19:03;;;;;;;15.13;8.48;;;19.70;45.30;;;;;;6268617;28;20029;-66
2020/12/10 04:22:03;;;;;;;12.38;8.40;;;19.70;45.30;;;;;;6268999;28;20033;-67
2020/12/10 04:25:03;;;;;;;14.25;8.50;;;19.70;45.40;;;;;;6268109;28;20383;-67
2020/12/10 04:28:04;;;;;;;13.23;8.43;;;19.70;45.40;;;;;;6267792;28;20345;-67
2020/12/10 04:31:04;;;;;;;13.38;8.30;;;19.70;45.40;;;;;;6267878;28;20404;-67
2020/12/10 04:34:05;;;;;;;12.98;8.43;;;19.70;45.40;;;;;;6269162;28;20025;-67
2020/12/10 04:37:05;;;;;;;15.52;9.30;;;19.70;45.40;;;;;;6268170;28;20468;-67
2020/12/10 04:40:06;;;;;;;12.07;7.75;;;19.70;45.40;;;;;;6268309;28;20296;-67
2020/12/10 04:43:08;;;;;;;11.75;8.02;;;19.70;45.40;;;;;;6269846;28;20112;-67
2020/12/10 04:46:10;;;;;;;12.23;8.30;;;19.70;45.40;;;;;;6268697;28;20466;-67
2020/12/10 04:49:12;;;;;;;12.82;8.27;;;19.70;45.40;;;;;;6268532;28;20036;-67
2020/12/10 04:52:13;;;;;;;13.93;9.05;;;19.70;45.50;;;;;;6245915;28;20037;-67
2020/12/10 04:55:13;;;;;;;14.05;8.95;;;19.70;45.50;;;;;;6243676;28;20021;-67
2020/12/10 04:58:14;;;;;;;14.15;9.23;;;19.70;46.10;;;;;;6243457;28;20064;-67
2020/12/10 05:01:16;;;;;;;13.65;8.82;;;19.70;45.50;;;;;;6242791;28;20531;-67
2020/12/10 05:04:16;;;;;;;12.93;8.65;;;19.70;45.50;;;;;;6243057;28;20036;-67
2020/12/10 05:07:17;;;;;;;15.32;8.93;;;19.70;45.50;;;;;;6243448;28;20384;-67
2020/12/10 05:10:17;;;;;;;13.65;8.98;;;19.70;45.50;;;;;;6243126;28;20535;-67
2020/12/10 05:13:18;;;;;;;13.18;8.25;;;19.70;45.40;;;;;;6243706;28;20052;-67
2020/12/10 05:16:22;;;;;;;12.43;8.35;;;19.80;45.40;;;;;;6243467;28;20038;-67
2020/12/10 05:19:22;;;;;;;13.25;8.88;;;19.80;45.40;;;;;;6242370;28;20047;-67
2020/12/10 05:22:23;;;;;;;14.27;9.05;;;19.80;45.30;;;;;;6242295;28;20477;-67
2020/12/10 05:25:23;;;;;;;14.45;8.93;;;19.80;45.30;;;;;;6242623;28;20610;-67
2020/12/10 05:28:25;;;;;;;15.15;9.00;;;19.90;45.50;;;;;;6242357;28;20349;-67
2020/12/10 05:31:26;;;;;;;12.85;8.48;;;19.90;45.40;;;;;;6242857;28;20029;-67
2020/12/10 05:34:26;;;;;;;13.95;8.85;;;19.90;45.40;;;;;;6242758;28;20029;-67
2020/12/10 05:37:31;;;;;;;13.73;8.73;;;19.90;46.20;;;;;;6242388;28;20480;-66
2020/12/10 05:40:31;;;;;;;13.23;8.27;;;19.90;45.50;;;;;;6240522;28;20044;-66
2020/12/10 05:43:31;;;;;;;13.50;9.02;;;19.90;45.40;;;;;;6242324;28;20030;-66
2020/12/10 05:46:35;;;;;;;14.15;8.82;;;19.90;45.50;;;;;;6243911;28;20544;-66
2020/12/10 05:49:36;;;;;;;13.77;8.63;;;19.90;45.40;;;;;;6244401;28;20021;-66
2020/12/10 05:52:41;;;;;;;13.43;8.82;;;19.90;45.40;;;;;;6244121;28;20127;-66
2020/12/10 05:55:48;;;;;;;14.20;8.77;;;20.00;45.60;;;;;;6243765;28;20034;-66
2020/12/10 05:58:53;;;;;;;11.80;8.05;;;20.00;45.50;;;;;;6241197;28;20531;-66
2020/12/10 06:01:57;;;;;;;13.93;9.07;;;19.90;45.50;;;;;;6243276;28;20025;-66
2020/12/10 06:04:58;;;;;;;13.63;8.23;;;20.00;45.60;;;;;;6241717;28;20073;-66
2020/12/10 06:08:04;;;;;;;14.85;8.50;;;19.90;45.50;;;;;;6242466;28;20276;-66
2020/12/10 06:11:04;;;;;;;13.05;8.20;;;19.90;45.50;;;;;;6241304;28;20025;-66
2020/12/10 06:14:06;;;;;;;12.70;8.10;;;19.90;45.50;;;;;;6241928;28;20484;-66
2020/12/10 06:17:10;;;;;;;25.50;12.38;;;19.90;45.50;;;;;;6241566;28;20025;-66
2020/12/10 06:20:34;;;;;;;82.32;42.50;;;19.90;44.70;;;;;;6233608;28;20071;-65
2020/12/10 06:23:36;;;;;;;92.82;46.42;;;19.60;37.80;;;;;;6242060;28;20112;-66
2020/12/10 06:26:36;;;;;;;82.90;42.38;;;19.50;35.40;;;;;;6253509;28;20422;-67
2020/12/10 06:29:37;;;;;;;65.18;34.00;;;19.30;37.50;;;;;;6265194;28;20036;-67
2020/12/10 06:32:55;;;;;;;59.75;33.08;;;19.60;40.10;;;;;;6240764;28;20053;-67
2020/12/10 06:35:55;;;;;;;79.53;39.97;;;19.80;40.30;;;;;;6241012;28;20091;-67
2020/12/10 06:38:57;;;;;;;100.22;46.05;;;19.90;40.70;;;;;;6245849;28;20381;-67
2020/12/10 06:41:59;;;;;;;90.05;42.50;;;20.00;41.20;;;;;;6239722;28;20037;-67
2020/12/10 06:44:59;;;;;;;119.75;52.28;;;20.00;41.50;;;;;;6239323;28;20025;-67
2020/12/10 06:48:18;;;;;;;105.72;46.75;;;20.00;41.70;;;;;;6240793;28;20670;-67
2020/12/10 06:51:21;;;;;;;99.60;43.42;;;20.10;42.10;;;;;;6240602;28;20018;-66
2020/12/10 06:54:21;;;;;;;86.82;39.97;;;20.10;42.40;;;;;;6240755;28;20568;-62
2020/12/10 06:57:22;;;;;;;76.13;36.78;;;20.10;42.80;;;;;;6230967;28;20096;-64
2020/12/10 07:00:42;;;;;;;84.22;38.00;;;20.10;42.60;;;;;;6236503;28;20038;-65
2020/12/10 07:03:43;;;;;;;83.07;36.83;;;20.20;43.20;;;;;;6240473;28;20029;-64
2020/12/10 07:06:46;;;;;;;70.97;33.15;;;20.20;43.20;;;;;;6241516;28;20104;-65
2020/12/10 07:10:01;;;;;;;72.30;32.63;;;20.30;42.80;;;;;;6241795;28;20567;-65
2020/12/10 07:13:02;;;;;;;68.72;32.47;;;20.30;42.90;;;;;;6241548;28;20433;-66
2020/12/10 07:16:02;;;;;;;68.63;32.05;;;20.30;43.40;;;;;;6244507;28;20036;-65
2020/12/10 07:19:03;;;;;;;65.38;32.72;;;20.30;43.00;;;;;;6266281;28;20040;-66
2020/12/10 07:22:03;;;;;;;65.25;31.23;;;20.10;43.10;;;;;;6240864;28;20033;-66
2020/12/10 07:25:04;;;;;;;56.63;28.15;;;20.10;43.40;;;;;;6230600;28;20057;-66
2020/12/10 07:28:04;;;;;;;59.47;28.40;;;20.20;43.40;;;;;;6242583;28;20099;-67
2020/12/10 07:31:13;;;;;;;58.58;27.70;;;20.40;43.60;;;;;;6247742;28;20150;-64
2020/12/10 07:34:13;;;;;;;53.30;27.08;;;20.40;43.30;;;;;;6227773;28;20630;-65
2020/12/10 07:37:16;;;;;;;55.22;28.10;;;20.50;43.50;;;;;;6233946;28;20056;-66
2020/12/10 07:40:18;;;;;;;54.45;27.15;;;20.50;43.20;;;;;;6246070;28;20029;-67
2020/12/10 07:43:19;;;;;;;54.85;26.73;;;20.60;43.40;;;;;;6245928;28;20079;-67
2020/12/10 07:46:20;;;;;;;50.45;25.65;;;20.60;43.50;;;;;;6246202;28;20034;-66
2020/12/10 07:49:31;;;;;;;50.33;26.50;;;20.60;43.40;;;;;;6245971;28;20053;-65
2020/12/10 07:52:32;;;;;;;43.85;23.50;;;20.60;43.40;;;;;;6245446;28;20037;-65
2020/12/10 07:55:35;;;;;;;46.25;23.08;;;20.70;43.40;;;;;;6246258;28;20144;-66
2020/12/10 07:58:47;;;;;;;44.00;22.48;;;20.70;43.20;;;;;;6246110;28;20021;-67
2020/12/10 08:01:52;;;;;;;44.33;22.80;;;20.70;43.30;;;;;;6244563;28;20464;-66
2020/12/10 08:04:53;;;;;;;43.75;23.05;;;20.70;43.20;;;;;;6246234;28;20032;-67
2020/12/10 08:07:55;;;;;;;48.08;23.30;;;20.70;43.40;;;;;;6245821;28;20034;-67
2020/12/10 08:11:05;;;;;;;41.90;22.83;;;20.70;43.30;;;;;;6244888;28;20052;-67
2020/12/10 08:14:09;;;;;;;41.83;21.33;;;20.70;43.60;;;;;;6260461;28;20028;-67
2020/12/10 08:17:19;;;;;;;39.03;21.50;;;20.70;43.30;;;;;;6245662;28;20499;-67
2020/12/10 08:20:20;;;;;;;40.92;22.73;;;20.70;43.30;;;;;;6245224;28;20017;-68
2020/12/10 08:23:20;;;;;;;43.75;23.20;;;20.70;43.40;;;;;;6244843;28;20133;-67
2020/12/10 08:26:21;;;;;;;40.58;21.45;;;20.70;43.40;;;;;;6263792;28;20025;-67
2020/12/10 08:29:21;;;;;;;39.20;21.65;;;20.80;43.60;;;;;;6269344;28;20063;-66
2020/12/10 08:32:21;;;;;;;36.13;20.58;;;20.80;43.70;;;;;;6264367;28;20063;-66
2020/12/10 08:35:22;;;;;;;37.95;21.52;;;20.80;43.60;;;;;;6265998;28;20115;-66
2020/12/10 08:38:23;;;;;;;36.92;20.55;;;20.80;43.40;;;;;;6257699;28;20096;-66
2020/12/10 08:41:25;;;;;;;38.60;20.73;;;20.80;43.50;;;;;;6250959;28;20069;-65
2020/12/10 08:44:26;;;;;;;40.90;19.90;;;20.80;43.60;;;;;;6250087;28;20022;-66
2020/12/10 08:47:30;;;;;;;38.10;20.38;;;20.80;43.40;;;;;;6246140;28;20029;-68
2020/12/10 08:50:31;;;;;;;42.83;20.52;;;20.80;43.40;;;;;;6244718;28;20553;-68
2020/12/10 08:53:31;;;;;;;41.00;20.67;;;20.90;43.60;;;;;;6257769;28;20021;-68
2020/12/10 08:56:38;;;;;;;41.67;19.85;;;20.90;43.60;;;;;;6284156;28;20039;-68
2020/12/10 08:59:38;;;;;;;40.13;18.55;;;20.90;43.70;;;;;;6259895;28;20026;-68
2020/12/10 09:02:38;;;;;;;40.60;20.42;;;20.90;43.70;;;;;;6245889;28;20564;-66
2020/12/10 09:05:39;;;;;;;38.78;20.38;;;20.90;43.80;;;;;;6244182;28;20591;-66
2020/12/10 09:08:39;;;;;;;36.00;19.20;;;20.90;43.90;;;;;;6253468;28;20495;-66
2020/12/10 09:11:45;;;;;;;37.58;19.80;;;21.00;43.90;;;;;;6242582;28;20037;-65
2020/12/10 09:14:45;;;;;;;36.85;19.35;;;20.90;43.90;;;;;;6263134;28;20032;-64
2020/12/10 09:17:46;;;;;;;36.50;19.13;;;20.90;43.90;;;;;;6265131;28;20026;-64
2020/12/10 09:20:46;;;;;;;34.95;18.42;;;20.90;43.90;;;;;;6243609;28;20095;-66
2020/12/10 09:23:47;;;;;;;38.35;18.52;;;20.90;43.90;;;;;;6253584;28;20104;-66
2020/12/10 09:26:48;;;;;;;36.95;18.15;;;20.80;44.00;;;;;;6269580;28;20394;-67
2020/12/10 09:29:49;;;;;;;35.05;18.45;;;20.90;44.00;;;;;;6269815;28;20029;-65
2020/12/10 09:32:49;;;;;;;40.65;17.70;;;20.90;44.10;;;;;;6269020;28;20539;-65
2020/12/10 09:35:49;;;;;;;29.10;16.60;;;20.90;44.00;;;;;;6244956;28;20036;-67
2020/12/10 09:38:50;;;;;;;34.30;17.50;;;21.00;43.90;;;;;;6243618;28;20037;-67
2020/12/10 09:41:51;;;;;;;33.45;17.17;;;21.00;43.90;;;;;;6243468;28;20037;-66
2020/12/10 09:44:51;;;;;;;32.38;17.42;;;21.00;44.00;;;;;;6258829;28;20025;-66
2020/12/10 09:47:52;;;;;;;36.90;20.13;;;20.90;43.60;;;;;;6272037;28;20044;-67
2020/12/10 09:50:52;;;;;;;37.25;19.88;;;20.80;43.40;;;;;;6269517;28;20025;-66
2020/12/10 09:54:03;;;;;;;42.00;22.75;;;20.60;43.00;;;;;;6270905;28;20024;-66
2020/12/10 09:57:37;;;;;;;51.72;26.92;;;20.60;42.70;;;;;;6270071;28;20032;-67
2020/12/10 10:00:31;;;;;;;50.38;25.98;;;20.50;41.90;;;;;;6267742;28;20103;-67
2020/12/10 10:03:31;;;;;;;51.70;25.45;;;20.40;41.40;;;;;;6268180;28;20665;-67
2020/12/10 10:06:32;;;;;;;59.05;28.65;;;20.40;41.30;;;;;;6268360;28;20017;-67
2020/12/10 10:09:33;;;;;;;58.67;31.15;;;20.30;40.50;;;;;;6263005;28;20114;-67
2020/12/10 10:12:33;;;;;;;64.90;31.50;;;20.40;40.50;;;;;;6242693;28;20109;-67
2020/12/10 10:15:34;;;;;;;56.90;30.83;;;20.30;40.40;;;;;;6260280;28;20021;-68
2020/12/10 10:18:34;;;;;;;63.67;32.40;;;20.30;39.90;;;;;;6266774;28;20045;-67
2020/12/10 10:21:35;;;;;;;64.25;32.08;;;20.20;39.60;;;;;;6267802;28;20372;-68
2020/12/10 10:24:35;;;;;;;62.33;31.63;;;20.20;39.70;;;;;;6267304;28;20367;-68
2020/12/10 10:27:37;;;;;;;59.55;30.65;;;20.20;39.70;;;;;;6259905;28;20442;-68
2020/12/10 10:30:37;;;;;;;64.15;32.45;;;20.20;39.30;;;;;;6241855;28;20049;-66
2020/12/10 10:33:38;;;;;;;61.53;33.03;;;20.20;39.20;;;;;;6243541;28;20478;-66
2020/12/10 10:36:38;;;;;;;66.07;32.55;;;20.20;39.00;;;;;;6242129;28;20033;-65
2020/12/10 10:39:39;;;;;;;68.72;34.08;;;20.20;38.60;;;;;;6242434;28;20042;-65
2020/12/10 10:42:40;;;;;;;69.00;33.78;;;20.20;38.30;;;;;;6263037;28;20033;-66
2020/12/10 10:45:40;;;;;;;84.53;39.60;;;20.20;38.20;;;;;;6256382;28;20431;-65
2020/12/10 10:48:41;;;;;;;86.15;38.58;;;19.90;34.60;;;;;;6243265;28;20030;-66
2020/12/10 10:51:41;;;;;;;77.20;36.45;;;19.80;36.60;;;;;;6242069;28;20557;-67
2020/12/10 10:54:44;;;;;;;79.88;34.60;;;19.90;36.10;;;;;;6243423;28;20555;-69
2020/12/10 10:57:44;;;;;;;80.97;37.00;;;19.90;37.60;;;;;;6247861;28;20506;-70
2020/12/10 11:00:46;;;;;;;74.28;34.88;;;20.00;37.50;;;;;;6255761;28;20025;-67
2020/12/10 11:03:46;;;;;;;83.03;34.85;;;20.00;37.30;;;;;;6246622;28;20026;-68
2020/12/10 11:06:51;;;;;;;80.88;36.20;;;20.00;37.30;;;;;;6246406;28;20021;-67
2020/12/10 11:09:51;;;;;;;73.80;34.75;;;20.10;37.10;;;;;;6245238;28;20040;-67
2020/12/10 11:12:52;;;;;;;76.18;34.40;;;20.10;36.90;;;;;;6253610;28;20057;-71
2020/12/10 11:15:53;;;;;;;72.03;34.30;;;20.10;36.80;;;;;;6255992;28;20025;-68
2020/12/10 11:18:53;;;;;;;75.97;35.05;;;20.10;37.30;;;;;;6271016;28;20029;-68
2020/12/10 11:21:54;;;;;;;70.38;33.88;;;20.00;36.80;;;;;;6255056;28;20028;-65
2020/12/10 11:24:54;;;;;;;72.80;33.55;;;20.00;36.90;;;;;;6248337;28;20167;-70
2020/12/10 11:27:54;;;;;;;74.90;34.70;;;20.00;37.20;;;;;;6248918;28;20072;-69
2020/12/10 11:30:56;;;;;;;67.60;34.13;;;20.00;37.20;;;;;;6246708;28;20025;-69
2020/12/10 11:33:57;;;;;;;71.20;33.28;;;20.00;37.30;;;;;;6248190;28;20492;-66
2020/12/10 11:36:57;;;;;;;71.47;32.33;;;20.00;37.70;;;;;;6246854;28;20037;-69
2020/12/10 11:39:57;;;;;;;61.90;31.50;;;20.20;38.30;;;;;;6246670;28;20091;-67
2020/12/10 11:42:58;;;;;;;58.97;30.45;;;20.30;37.70;;;;;;6245101;28;20025;-69
2020/12/10 11:46:01;;;;;;;448.80;36.58;;;20.40;38.00;;;;;;6254129;28;20079;-67
2020/12/10 11:49:03;;;;;;;60.75;30.42;;;20.40;38.40;;;;;;6246628;28;20021;-68
2020/12/10 11:52:03;;;;;;;64.00;28.65;;;20.40;38.50;;;;;;6258210;28;20078;-66
2020/12/10 11:55:04;;;;;;;60.58;28.38;;;20.50;38.60;;;;;;6271849;28;20033;-69
2020/12/10 11:58:04;;;;;;;64.45;28.20;;;20.50;38.90;;;;;;6271513;28;20033;-68
2020/12/10 12:01:05;;;;;;;50.38;26.40;;;20.50;39.10;;;;;;6255638;28;20029;-66
2020/12/10 12:04:06;;;;;;;56.85;26.88;;;20.60;39.50;;;;;;6246979;28;20025;-69
2020/12/10 12:07:06;;;;;;;54.17;25.35;;;20.60;39.20;;;;;;6255574;28;20025;-68
2020/12/10 12:10:07;;;;;;;67.32;30.75;;;20.60;39.70;;;;;;6261219;28;20144;-68
2020/12/10 12:13:07;;;;;;;61.85;29.65;;;20.40;37.20;;;;;;6242748;28;20026;-67
2020/12/10 12:16:08;;;;;;;52.97;27.83;;;20.30;37.60;;;;;;6246257;28;20045;-69
2020/12/10 12:19:09;;;;;;;57.08;28.25;;;20.40;38.10;;;;;;6244289;28;20033;-68
2020/12/10 12:22:10;;;;;;;55.80;25.48;;;20.50;37.90;;;;;;6246457;28;20100;-69
2020/12/10 12:25:10;;;;;;;52.83;25.17;;;20.60;38.20;;;;;;6237676;28;20067;-67
2020/12/10 12:28:11;;;;;;;49.92;25.17;;;20.60;38.20;;;;;;6251978;28;20021;-67
2020/12/10 12:31:12;;;;;;;50.17;23.95;;;20.60;38.40;;;;;;6245756;28;20037;-68
2020/12/10 12:34:12;;;;;;;46.47;24.33;;;20.60;38.50;;;;;;6244832;28;20032;-69
2020/12/10 12:37:13;;;;;;;47.47;23.48;;;20.60;38.70;;;;;;6245676;28;20025;-70
2020/12/10 12:40:14;;;;;;;41.60;22.23;;;20.60;38.90;;;;;;6242961;28;20026;-68
2020/12/10 12:43:14;;;;;;;43.20;22.33;;;20.60;39.10;;;;;;6243723;28;20045;-71
2020/12/10 12:46:15;;;;;;;45.78;23.58;;;20.60;39.10;;;;;;6251202;28;20072;-68
2020/12/10 12:49:15;;;;;;;41.72;22.38;;;20.50;38.80;;;;;;6244914;28;20017;-68
2020/12/10 12:52:16;;;;;;;38.80;21.10;;;20.50;39.20;;;;;;6247296;28;20043;-69
2020/12/10 12:55:16;;;;;;;39.38;21.17;;;20.60;39.20;;;;;;6268140;28;20162;-69
2020/12/10 12:58:17;;;;;;;40.60;20.77;;;20.60;39.10;;;;;;6272656;28;20076;-68
2020/12/10 13:01:20;;;;;;;40.17;21.38;;;20.60;39.20;;;;;;6269324;28;20029;-67
2020/12/10 13:04:22;;;;;;;38.95;20.98;;;20.70;39.20;;;;;;6266457;28;20061;-68
2020/12/10 13:07:23;;;;;;;37.78;20.98;;;20.60;39.20;;;;;;6253023;28;20105;-68
2020/12/10 13:10:23;;;;;;;36.38;19.70;;;20.70;39.50;;;;;;6254293;28;20039;-68
2020/12/10 13:13:24;;;;;;;38.80;19.88;;;20.70;39.40;;;;;;6268883;28;20678;-68
2020/12/10 13:16:24;;;;;;;37.75;19.85;;;20.70;39.50;;;;;;6258716;28;20090;-68
2020/12/10 13:19:25;;;;;;;39.53;19.88;;;20.70;39.60;;;;;;6247441;28;20033;-64
2020/12/10 13:22:25;;;;;;;38.92;19.52;;;20.60;39.50;;;;;;6252154;28;20049;-68
2020/12/10 13:25:26;;;;;;;34.15;18.55;;;20.60;39.80;;;;;;6242523;28;20380;-71
2020/12/10 13:28:26;;;;;;;33.75;18.67;;;20.60;39.80;;;;;;6244092;28;20558;-67
2020/12/10 13:31:35;;;;;;;32.42;18.35;;;20.70;40.00;;;;;;6244721;28;20026;-68
2020/12/10 13:34:35;;;;;;;32.60;18.75;;;20.60;40.00;;;;;;6242471;28;20025;-70
2020/12/10 13:37:36;;;;;;;37.75;17.95;;;20.60;40.10;;;;;;6250129;28;20044;-68
2020/12/10 13:40:36;;;;;;;29.92;16.88;;;20.70;40.20;;;;;;6248449;28;20037;-68
2020/12/10 13:43:37;;;;;;;31.98;18.10;;;20.70;40.20;;;;;;6245751;28;20073;-69
2020/12/10 13:46:39;;;;;;;34.22;17.45;;;20.70;40.30;;;;;;6243426;28;20097;-68
2020/12/10 13:49:39;;;;;;;35.38;18.25;;;20.60;40.20;;;;;;6242868;28;20064;-68
2020/12/10 13:52:40;;;;;;;30.92;17.45;;;20.60;40.20;;;;;;6241996;28;20484;-69
2020/12/10 13:55:43;;;;;;;29.77;16.80;;;20.60;40.40;;;;;;6243950;28;20535;-68
2020/12/10 13:58:43;;;;;;;27.02;15.98;;;20.60;40.40;;;;;;6242631;28;20083;-68
2020/12/10 14:01:45;;;;;;;30.45;16.95;;;20.60;40.30;;;;;;6241455;28;20480;-68
2020/12/10 14:04:46;;;;;;;30.30;16.25;;;20.60;40.40;;;;;;6242007;28;20021;-68
2020/12/10 14:07:46;;;;;;;28.20;16.02;;;20.60;40.40;;;;;;6255844;28;20281;-69
2020/12/10 14:10:47;;;;;;;30.20;16.67;;;20.60;40.40;;;;;;6234865;28;20069;-68
2020/12/10 14:13:47;;;;;;;35.15;17.15;;;20.60;40.30;;;;;;6230437;28;20025;-68
2020/12/10 14:16:48;;;;;;;30.90;16.23;;;20.60;40.30;;;;;;6248385;28;20026;-69
2020/12/10 14:19:49;;;;;;;30.00;16.27;;;20.70;40.30;;;;;;6246571;28;20088;-67
2020/12/10 14:22:50;;;;;;;31.95;17.25;;;20.60;40.20;;;;;;6251142;28;20015;-66
2020/12/10 14:25:50;;;;;;;27.92;15.43;;;20.80;40.30;;;;;;6264743;28;20542;-67
2020/12/10 14:28:52;;;;;;;26.40;15.13;;;20.70;40.20;;;;;;6242679;28;20038;-67
2020/12/10 14:31:53;;;;;;;28.85;16.00;;;20.80;40.10;;;;;;6250991;28;20474;-67
2020/12/10 14:34:53;;;;;;;24.83;15.07;;;20.70;40.30;;;;;;6255953;28;20029;-67
2020/12/10 14:37:54;;;;;;;44.97;21.95;;;20.70;40.30;;;;;;6254005;28;20107;-69
2020/12/10 14:40:55;;;;;;;49.38;20.85;;;20.80;40.40;;;;;;6270296;28;20037;-68
2020/12/10 14:43:55;;;;;;;37.67;19.45;;;20.70;40.50;;;;;;6254479;28;20025;-67
2020/12/10 14:46:55;;;;;;;84.65;35.35;;;20.70;40.50;;;;;;6271861;28;20048;-65
2020/12/10 14:49:56;;;;;;;74.32;30.00;;;20.70;40.50;;;;;;6272000;28;20056;-66
2020/12/10 14:52:56;;;;;;;94.03;37.95;;;20.70;40.60;;;;;;6254294;28;20053;-67
2020/12/10 14:55:57;;;;;;;103.35;41.63;;;20.80;40.70;;;;;;6250691;28;20094;-66
2020/12/10 14:58:57;;;;;;;94.32;38.28;;;20.80;40.70;;;;;;6248567;28;20060;-65
2020/12/10 15:01:58;;;;;;;90.95;34.90;;;20.80;40.80;;;;;;6251559;28;20467;-65
2020/12/10 15:04:59;;;;;;;79.30;33.80;;;20.80;40.70;;;;;;6252220;28;20492;-67
2020/12/10 15:07:59;;;;;;;82.57;34.67;;;20.80;40.70;;;;;;6248011;28;20021;-66
2020/12/10 15:10:59;;;;;;;74.15;31.52;;;20.80;40.80;;;;;;6271288;28;20098;-67
2020/12/10 15:14:00;;;;;;;78.22;30.13;;;20.80;40.90;;;;;;6270535;28;20032;-66
2020/12/10 15:17:00;;;;;;;74.13;30.90;;;20.70;40.90;;;;;;6266840;28;20034;-65
2020/12/10 15:20:01;;;;;;;68.05;29.05;;;20.70;41.00;;;;;;6245115;28;20516;-66
2020/12/10 15:23:02;;;;;;;67.57;28.38;;;20.80;41.00;;;;;;6258310;28;20028;-67
2020/12/10 15:26:03;;;;;;;55.83;25.73;;;20.80;41.00;;;;;;6270143;28;20033;-71